Time;durP1;ratioP1;P1;durP2;ratioP2;P2;SDS_P1;SDS_P2;PMS_P1;PMS_P2;Temp;Humidity;BMP_temperature;BMP_pressure;BME280_temperature;BME280_humidity;BME280_pressure;Samples;Min_cycle;Max_cycle;Signal;HPM_P1;HPM_P2
2022/04/29 00:00:16;;;;;;;4.07;2.90;;;22.20;77.00;;;;;;5121060;22;20386;-62
2022/04/29 00:02:19;;;;;;;5.43;2.88;;;22.20;76.70;;;;;;5118716;22;20028;-64
2022/04/29 00:04:21;;;;;;;5.15;3.22;;;22.20;77.00;;;;;;5126473;22;20074;-61
2022/04/29 00:06:23;;;;;;;3.83;2.75;;;22.20;77.10;;;;;;5126204;22;20020;-63
2022/04/29 00:08:25;;;;;;;4.07;3.00;;;22.20;77.20;;;;;;5119534;22;20062;-62
2022/04/29 00:10:28;;;;;;;3.33;2.55;;;22.30;77.90;;;;;;5122514;22;20052;-61
2022/04/29 00:12:30;;;;;;;4.00;2.80;;;22.30;77.50;;;;;;5127375;22;20540;-60
2022/04/29 00:14:32;;;;;;;3.55;2.58;;;22.40;77.40;;;;;;5120961;22;20068;-64
2022/04/29 00:16:34;;;;;;;3.78;2.20;;;22.40;77.30;;;;;;5122714;22;20035;-66
2022/04/29 00:18:37;;;;;;;3.35;2.35;;;22.40;77.30;;;;;;5127357;22;20028;-63
2022/04/29 00:20:39;;;;;;;2.28;1.88;;;22.40;77.40;;;;;;5125306;22;20283;-63
2022/04/29 00:22:44;;;;;;;4.05;2.08;;;22.40;77.40;;;;;;5121643;22;20028;-64
2022/04/29 00:24:46;;;;;;;4.53;2.28;;;22.50;77.30;;;;;;5125095;22;20699;-62
2022/04/29 00:26:49;;;;;;;4.90;1.80;;;22.50;77.30;;;;;;5126940;22;20020;-65
2022/04/29 00:28:51;;;;;;;2.53;1.85;;;22.50;77.30;;;;;;5123815;22;20070;-61
2022/04/29 00:30:53;;;;;;;5.25;2.40;;;22.50;77.20;;;;;;5124644;22;20826;-62
2022/04/29 00:32:55;;;;;;;3.92;2.42;;;22.60;76.80;;;;;;5131238;22;20095;-62
2022/04/29 00:34:57;;;;;;;4.60;3.03;;;22.60;76.20;;;;;;5125489;22;20024;-62
2022/04/29 00:36:59;;;;;;;6.03;3.10;;;22.50;76.00;;;;;;5126165;22;20028;-62
2022/04/29 00:39:03;;;;;;;5.57;2.78;;;22.50;76.20;;;;;;5131273;23;20127;-65
2022/04/29 00:41:05;;;;;;;6.90;3.17;;;22.50;76.50;;;;;;5134686;22;20031;-63
2022/04/29 00:43:08;;;;;;;5.47;2.55;;;22.60;76.60;;;;;;5131255;22;20072;-61
2022/04/29 00:45:10;;;;;;;3.90;2.65;;;22.60;76.70;;;;;;5123946;23;20028;-63
2022/04/29 00:47:22;;;;;;;11.47;2.80;;;22.60;76.70;;;;;;5129742;23;20028;-66
2022/04/29 00:49:24;;;;;;;6.25;2.58;;;22.60;76.70;;;;;;5140924;22;20797;-64
2022/04/29 00:51:27;;;;;;;3.97;2.20;;;22.60;76.70;;;;;;5135977;22;20404;-63
2022/04/29 00:53:30;;;;;;;3.17;2.08;;;22.70;76.70;;;;;;5135292;22;20079;-64
2022/04/29 00:55:36;;;;;;;5.43;2.17;;;22.70;77.30;;;;;;5136718;23;20390;-61
2022/04/29 00:57:50;;;;;;;5.53;2.00;;;22.80;76.60;;;;;;5140290;22;20081;-64
2022/04/29 01:00:08;;;;;;;5.05;2.00;;;22.80;76.50;;;;;;5135072;22;20102;-64
2022/04/29 01:02:12;;;;;;;2.92;2.08;;;22.90;76.50;;;;;;5126172;22;20067;-63
2022/04/29 01:04:22;;;;;;;3.90;2.05;;;22.90;76.30;;;;;;5131133;22;20028;-62
2022/04/29 01:06:26;;;;;;;2.92;1.92;;;22.90;76.30;;;;;;5129431;22;20430;-64
2022/04/29 01:08:28;;;;;;;2.63;1.88;;;22.90;76.30;;;;;;5128160;22;20366;-62
2022/04/29 01:10:30;;;;;;;3.17;1.95;;;22.90;76.30;;;;;;5128932;22;20047;-62
2022/04/29 01:12:36;;;;;;;2.55;1.75;;;23.00;76.20;;;;;;5131608;22;20115;-62
2022/04/29 01:14:38;;;;;;;3.33;2.13;;;23.00;76.20;;;;;;5127996;23;20112;-66
2022/04/29 01:16:41;;;;;;;3.75;2.15;;;23.00;75.80;;;;;;5129933;22;20102;-63
2022/04/29 01:18:44;;;;;;;3.70;2.58;;;23.00;75.70;;;;;;5139480;22;20102;-62
2022/04/29 01:20:46;;;;;;;4.78;2.53;;;23.00;75.60;;;;;;5139740;22;20051;-67
2022/04/29 01:22:49;;;;;;;6.40;3.80;;;23.00;75.70;;;;;;5131976;23;20139;-66
2022/04/29 01:24:51;;;;;;;9.80;4.18;;;23.00;76.30;;;;;;5134032;23;20642;-66
2022/04/29 01:27:01;;;;;;;4.65;3.05;;;23.00;76.70;;;;;;5136871;22;20858;-63
2022/04/29 01:29:06;;;;;;;5.38;3.00;;;23.00;76.50;;;;;;5124063;22;20055;-63
2022/04/29 01:31:13;;;;;;;6.75;3.30;;;23.00;76.60;;;;;;5121299;22;20062;-62
2022/04/29 01:33:17;;;;;;;5.55;3.53;;;23.00;76.90;;;;;;5112491;22;20035;-62
2022/04/29 01:35:19;;;;;;;14.52;3.53;;;23.10;77.20;;;;;;5112899;22;20028;-64
2022/04/29 01:37:22;;;;;;;5.55;3.42;;;23.10;77.40;;;;;;5113771;22;20371;-63
2022/04/29 01:39:24;;;;;;;6.75;3.70;;;23.10;77.70;;;;;;5120940;22;20028;-62
2022/04/29 01:41:26;;;;;;;6.35;3.25;;;23.20;77.60;;;;;;5111332;22;20417;-61
2022/04/29 01:43:28;;;;;;;11.60;3.83;;;23.20;77.50;;;;;;5114189;22;20106;-63
2022/04/29 01:45:31;;;;;;;5.28;3.60;;;23.30;77.50;;;;;;5119417;22;20040;-62
2022/04/29 01:47:33;;;;;;;4.32;3.20;;;23.30;77.30;;;;;;5113120;23;20097;-63
2022/04/29 01:49:35;;;;;;;5.50;3.30;;;23.30;77.30;;;;;;5112447;22;20039;-62
2022/04/29 01:51:37;;;;;;;5.80;3.10;;;23.40;77.20;;;;;;5112258;22;20024;-63
2022/04/29 01:53:39;;;;;;;5.35;2.88;;;23.40;77.00;;;;;;5119329;22;20032;-63
2022/04/29 01:55:41;;;;;;;4.22;3.00;;;23.50;76.90;;;;;;5112565;22;20500;-65
2022/04/29 01:57:48;;;;;;;6.68;3.20;;;23.50;76.70;;;;;;5112341;22;20336;-63
2022/04/29 01:59:50;;;;;;;5.30;2.95;;;23.50;76.70;;;;;;5116402;22;20032;-61
2022/04/29 02:01:53;;;;;;;5.63;3.27;;;23.60;76.70;;;;;;5120167;22;20024;-59
2022/04/29 02:03:56;;;;;;;4.30;3.00;;;23.60;76.10;;;;;;5113902;22;20032;-60
2022/04/29 02:05:58;;;;;;;4.43;3.63;;;23.50;76.20;;;;;;5111961;22;20028;-61
2022/04/29 02:08:00;;;;;;;5.75;3.47;;;23.50;76.30;;;;;;5116477;23;20035;-60
2022/04/29 02:10:03;;;;;;;5.43;3.30;;;23.50;76.70;;;;;;5115332;22;20797;-62
2022/04/29 02:12:05;;;;;;;4.97;3.33;;;23.50;76.80;;;;;;5112543;22;20656;-60
2022/04/29 02:14:09;;;;;;;5.03;3.60;;;23.50;76.50;;;;;;5115090;22;20500;-59
2022/04/29 02:16:11;;;;;;;6.43;3.70;;;23.50;76.40;;;;;;5119905;23;20036;-62
2022/04/29 02:18:13;;;;;;;6.93;3.80;;;23.50;76.20;;;;;;5111073;22;20732;-64
2022/04/29 02:20:15;;;;;;;4.35;3.17;;;23.50;76.20;;;;;;5112520;22;20078;-61
2022/04/29 02:22:17;;;;;;;4.90;3.05;;;23.50;76.40;;;;;;5119893;22;20397;-61
2022/04/29 02:24:20;;;;;;;9.43;2.80;;;23.50;76.60;;;;;;5114952;22;20028;-61
2022/04/29 02:26:22;;;;;;;6.13;2.75;;;23.50;76.70;;;;;;5112675;22;20675;-60
2022/04/29 02:28:25;;;;;;;3.10;2.33;;;23.60;76.70;;;;;;5117472;22;20028;-60
2022/04/29 02:30:27;;;;;;;3.60;2.50;;;23.60;76.60;;;;;;5118079;22;20043;-61
2022/04/29 02:32:29;;;;;;;4.97;2.30;;;23.60;76.50;;;;;;5112387;22;20508;-62
2022/04/29 02:34:32;;;;;;;3.65;2.33;;;23.70;76.60;;;;;;5109309;23;20131;-62
2022/04/29 02:36:34;;;;;;;3.05;2.00;;;23.70;76.50;;;;;;5120350;22;20459;-60
2022/04/29 02:38:36;;;;;;;3.67;1.80;;;23.80;76.30;;;;;;5112069;22;20028;-60
2022/04/29 02:40:39;;;;;;;4.00;2.50;;;23.80;76.20;;;;;;5113229;22;20265;-59
2022/04/29 02:42:41;;;;;;;4.22;2.28;;;23.90;76.20;;;;;;5119059;22;20050;-61
2022/04/29 02:44:43;;;;;;;6.90;2.53;;;23.90;76.10;;;;;;5112197;23;20028;-61
2022/04/29 02:49:06;;;;;;;4.13;1.80;;;24.00;75.80;;;;;;5110736;23;20895;-60
2022/04/29 02:51:08;;;;;;;11.25;2.30;;;24.00;75.80;;;;;;5111662;22;20032;-62
2022/04/29 02:53:10;;;;;;;3.78;1.77;;;24.00;75.70;;;;;;5117926;22;20103;-61
2022/04/29 02:55:12;;;;;;;4.45;2.05;;;24.10;75.70;;;;;;5117085;22;20028;-60
2022/04/29 02:57:15;;;;;;;5.10;2.00;;;24.10;75.70;;;;;;5109638;23;20039;-63
2022/04/29 02:59:18;;;;;;;4.03;1.80;;;24.10;75.60;;;;;;5112635;23;20050;-61
2022/04/29 03:01:20;;;;;;;5.68;2.22;;;24.10;75.70;;;;;;5120397;22;20031;-61
2022/04/29 03:03:22;;;;;;;5.00;1.90;;;24.10;75.60;;;;;;5109397;23;20170;-61
2022/04/29 03:05:26;;;;;;;3.08;1.90;;;24.20;75.70;;;;;;5113803;22;20055;-61
2022/04/29 03:07:28;;;;;;;6.70;2.38;;;24.20;75.70;;;;;;5115208;23;20038;-61
2022/04/29 03:09:31;;;;;;;7.93;2.10;;;24.20;75.50;;;;;;5114760;23;21025;-63
2022/04/29 03:11:33;;;;;;;2.40;1.58;;;24.20;75.50;;;;;;5112480;22;20063;-61
2022/04/29 03:13:35;;;;;;;2.70;1.77;;;24.30;75.60;;;;;;5114501;22;20034;-63
2022/04/29 03:15:37;;;;;;;4.13;2.08;;;24.40;75.60;;;;;;5120931;22;20095;-62
2022/04/29 03:20:00;;;;;;;2.47;1.60;;;24.40;76.10;;;;;;5118258;23;20369;-62
2022/04/29 03:22:02;;;;;;;3.65;1.73;;;24.40;75.40;;;;;;5111701;23;20062;-61
2022/04/29 03:24:05;;;;;;;8.15;1.88;;;24.40;75.30;;;;;;5111241;22;20024;-62
2022/04/29 03:26:07;;;;;;;2.63;1.80;;;24.50;75.40;;;;;;5119598;22;20684;-60
2022/04/29 03:28:10;;;;;;;4.10;1.60;;;24.50;75.30;;;;;;5114046;22;21076;-60
2022/04/29 03:30:13;;;;;;;3.88;2.00;;;24.60;75.20;;;;;;5112791;22;20071;-59
2022/04/29 03:32:15;;;;;;;3.15;1.92;;;24.60;75.10;;;;;;5118040;22;20043;-61
2022/04/29 03:34:18;;;;;;;2.72;1.80;;;24.70;75.00;;;;;;5118274;22;20862;-62
2022/04/29 03:36:20;;;;;;;4.75;2.05;;;24.70;74.70;;;;;;5113040;22;20064;-60
2022/04/29 03:38:23;;;;;;;3.20;2.17;;;24.80;74.50;;;;;;5088620;23;20478;-62
2022/04/29 03:40:26;;;;;;;3.20;2.15;;;24.80;73.70;;;;;;5092627;23;20605;-60
2022/04/29 03:42:28;;;;;;;2.40;2.10;;;24.80;73.40;;;;;;5093939;23;20028;-62
2022/04/29 03:44:30;;;;;;;3.13;2.17;;;24.90;73.20;;;;;;5088731;23;20024;-60
2022/04/29 03:46:32;;;;;;;3.88;2.10;;;25.00;73.30;;;;;;5089493;23;20473;-63
2022/04/29 03:50:54;;;;;;;3.22;2.08;;;25.00;73.20;;;;;;5062913;23;20036;-61
2022/04/29 03:53:02;;;;;;;3.13;2.00;;;25.10;72.70;;;;;;5095465;23;20138;-61
2022/04/29 03:55:05;;;;;;;3.95;2.05;;;25.20;73.00;;;;;;5091318;23;20223;-61
2022/04/29 03:57:08;;;;;;;4.22;2.00;;;25.20;72.40;;;;;;5089947;23;20577;-62
2022/04/29 03:59:11;;;;;;;3.92;2.10;;;25.30;72.50;;;;;;5064660;23;20029;-62
2022/04/29 04:01:13;;;;;;;3.83;1.83;;;25.30;71.90;;;;;;5096587;23;20055;-62
2022/04/29 04:03:15;;;;;;;2.83;1.90;;;25.40;72.00;;;;;;5086729;23;20879;-64
2022/04/29 04:05:18;;;;;;;4.30;2.22;;;25.40;72.00;;;;;;5087686;23;20028;-62
2022/04/29 04:07:21;;;;;;;2.45;2.08;;;25.40;72.00;;;;;;5094797;23;20032;-59
2022/04/29 04:09:24;;;;;;;3.67;2.20;;;25.50;72.10;;;;;;5090969;23;20446;-61
2022/04/29 04:11:27;;;;;;;3.50;2.50;;;25.60;72.00;;;;;;5062318;23;20037;-63
2022/04/29 04:13:35;;;;;;;4.97;2.70;;;25.70;70.90;;;;;;5100046;23;20028;-62
2022/04/29 04:15:37;;;;;;;3.70;2.40;;;25.70;70.40;;;;;;5068218;23;20395;-61
2022/04/29 04:17:40;;;;;;;3.17;2.53;;;25.70;70.50;;;;;;5090624;23;20032;-60
2022/04/29 04:19:42;;;;;;;4.32;2.42;;;25.80;70.70;;;;;;5088799;23;20070;-61
2022/04/29 04:21:44;;;;;;;6.57;2.20;;;25.80;70.80;;;;;;5091984;23;20195;-62
2022/04/29 04:23:46;;;;;;;3.58;2.10;;;25.90;71.10;;;;;;5070546;23;20819;-61
2022/04/29 04:25:50;;;;;;;3.28;2.13;;;26.00;71.20;;;;;;5090320;23;20025;-61
2022/04/29 04:27:52;;;;;;;2.58;1.38;;;26.00;71.20;;;;;;5090367;23;20051;-60
2022/04/29 04:29:54;;;;;;;5.10;2.00;;;26.10;71.20;;;;;;5096856;23;20207;-60
2022/04/29 04:31:56;;;;;;;2.55;1.95;;;26.20;71.30;;;;;;5063618;23;20525;-60
2022/04/29 04:33:58;;;;;;;3.03;1.40;;;26.20;71.20;;;;;;5091670;23;20044;-62
2022/04/29 04:36:01;;;;;;;4.43;1.60;;;26.20;71.40;;;;;;5098871;23;20059;-63
2022/04/29 04:38:03;;;;;;;1.85;1.38;;;26.20;71.60;;;;;;5118378;23;20028;-63
2022/04/29 04:40:06;;;;;;;1.40;1.30;;;26.20;71.60;;;;;;5117603;22;20095;-61
2022/04/29 04:42:08;;;;;;;2.00;1.17;;;26.30;71.50;;;;;;5123433;22;20074;-63
2022/04/29 04:44:10;;;;;;;1.17;1.08;;;26.40;71.60;;;;;;5122981;22;20454;-61
2022/04/29 04:46:13;;;;;;;2.28;1.15;;;26.50;71.50;;;;;;5117545;22;20047;-61
2022/04/29 04:48:15;;;;;;;3.40;1.30;;;26.50;72.10;;;;;;5117553;22;20032;-63
2022/04/29 04:50:18;;;;;;;1.92;1.00;;;26.60;71.40;;;;;;5123386;22;20024;-61
2022/04/29 04:52:21;;;;;;;1.60;0.93;;;26.60;71.60;;;;;;5116784;22;20028;-63
2022/04/29 04:54:23;;;;;;;2.05;0.98;;;26.60;71.70;;;;;;5119413;22;20097;-62
2022/04/29 04:56:26;;;;;;;0.85;0.85;;;26.70;71.70;;;;;;5119915;22;20099;-62
2022/04/29 04:58:32;;;;;;;1.23;0.80;;;26.80;71.60;;;;;;5125904;22;20051;-61
2022/04/29 05:00:35;;;;;;;2.20;0.90;;;26.90;71.60;;;;;;5119592;22;20028;-61
2022/04/29 05:02:40;;;;;;;;;;;27.00;71.00;;;;;;5119961;23;20024;-62
2022/04/29 05:04:42;;;;;;;1.30;0.70;;;27.10;70.90;;;;;;5123846;22;19956;-61
2022/04/29 05:06:44;;;;;;;1.70;0.90;;;27.10;70.60;;;;;;5129234;22;20024;-61
2022/04/29 05:08:46;;;;;;;0.87;0.87;;;27.20;70.70;;;;;;5123082;22;20470;-59
2022/04/29 05:10:49;;;;;;;1.38;0.85;;;27.30;70.60;;;;;;5121068;23;20036;-61
2022/04/29 05:12:51;;;;;;;1.30;0.80;;;27.30;70.50;;;;;;5132818;22;20050;-61
2022/04/29 05:14:53;;;;;;;0.85;0.80;;;27.40;70.40;;;;;;5129171;22;20032;-60
2022/04/29 05:16:55;;;;;;;4.75;1.10;;;27.40;70.20;;;;;;5129499;22;20016;-61
2022/04/29 05:18:57;;;;;;;2.50;0.80;;;27.40;70.40;;;;;;5128409;23;20032;-62
2022/04/29 05:21:01;;;;;;;1.85;0.57;;;27.40;70.40;;;;;;5133847;22;20087;-61
2022/04/29 05:23:03;;;;;;;0.93;0.88;;;27.40;70.30;;;;;;5126347;23;20031;-62
2022/04/29 05:25:10;;;;;;;1.17;0.80;;;27.50;70.30;;;;;;5130364;22;20150;-62
2022/04/29 05:27:13;;;;;;;2.13;0.88;;;27.50;70.10;;;;;;5120864;22;20019;-61
2022/04/29 05:29:15;;;;;;;3.23;1.00;;;27.60;70.20;;;;;;5131613;23;20016;-61
2022/04/29 05:31:18;;;;;;;3.10;0.68;;;27.50;70.20;;;;;;5130441;22;20262;-61
2022/04/29 05:33:25;;;;;;;7.70;0.98;;;27.50;70.50;;;;;;5132052;22;20024;-61
2022/04/29 05:35:27;;;;;;;1.35;0.75;;;27.50;70.50;;;;;;5107502;23;20035;-61
2022/04/29 05:37:31;;;;;;;2.35;0.50;;;27.50;70.60;;;;;;5114756;22;20121;-59
2022/04/29 05:44:14;;;;;;;0.63;0.60;;;27.40;70.80;;;;;;5117321;23;20036;-58
2022/04/29 05:46:16;;;;;;;4.97;1.17;;;27.40;70.70;;;;;;5113665;22;20079;-56
2022/04/29 05:48:18;;;;;;;2.93;1.10;;;27.30;69.80;;;;;;5113310;22;20137;-61
2022/04/29 05:50:21;;;;;;;2.70;1.40;;;27.30;69.50;;;;;;5115787;22;20059;-59
2022/04/29 05:52:23;;;;;;;2.90;1.40;;;27.20;70.00;;;;;;5116741;22;20028;-62
2022/04/29 05:54:25;;;;;;;3.03;1.45;;;27.20;70.20;;;;;;5110023;22;20305;-64
2022/04/29 05:56:28;;;;;;;1.23;1.02;;;27.10;70.40;;;;;;5112074;22;20097;-63
2022/04/29 05:58:31;;;;;;;4.93;1.30;;;27.20;70.60;;;;;;5089028;23;20379;-61
2022/04/29 06:00:34;;;;;;;1.55;1.13;;;27.10;70.70;;;;;;5116001;22;20024;-61
2022/04/29 06:02:38;;;;;;;1.58;1.15;;;27.20;70.80;;;;;;5108372;23;20039;-61
2022/04/29 06:04:40;;;;;;;6.03;1.40;;;27.20;71.60;;;;;;5110852;23;20090;-61
2022/04/29 06:06:42;;;;;;;1.73;1.10;;;27.20;71.00;;;;;;5117059;22;20039;-60
2022/04/29 06:08:45;;;;;;;2.77;0.97;;;27.20;71.10;;;;;;5115042;22;20127;-61
2022/04/29 06:10:47;;;;;;;2.27;1.00;;;27.10;71.10;;;;;;5110353;22;20281;-62
2022/04/29 06:12:49;;;;;;;0.98;0.88;;;27.10;71.20;;;;;;5114985;23;20270;-63
2022/04/29 06:14:51;;;;;;;0.93;0.87;;;27.10;71.20;;;;;;5117569;22;20109;-63
2022/04/29 06:16:54;;;;;;;1.60;0.90;;;27.10;71.20;;;;;;5113147;22;20523;-61
2022/04/29 06:18:56;;;;;;;1.20;0.88;;;27.20;71.30;;;;;;5087018;23;20115;-63
2022/04/29 06:20:58;;;;;;;1.73;1.20;;;27.10;71.20;;;;;;5120296;22;20611;-64
2022/04/29 06:23:00;;;;;;;1.98;1.10;;;27.20;71.30;;;;;;5110041;23;20869;-61
2022/04/29 06:25:03;;;;;;;1.80;1.10;;;27.20;71.30;;;;;;5112934;22;20486;-60
2022/04/29 06:27:05;;;;;;;1.33;1.07;;;27.20;71.40;;;;;;5119310;22;20035;-62
2022/04/29 06:29:08;;;;;;;0.88;0.82;;;27.20;71.40;;;;;;5113893;22;20261;-62
2022/04/29 06:31:11;;;;;;;1.60;1.13;;;27.20;71.40;;;;;;5108999;23;20527;-62
2022/04/29 06:33:14;;;;;;;1.10;1.00;;;27.20;71.40;;;;;;5116190;22;20032;-60
2022/04/29 06:35:19;;;;;;;1.47;1.10;;;27.20;71.40;;;;;;5117199;22;20028;-59
2022/04/29 06:37:21;;;;;;;1.85;1.00;;;27.20;71.60;;;;;;5108250;23;20039;-60
2022/04/29 06:39:23;;;;;;;1.33;1.10;;;27.30;71.70;;;;;;5113689;22;20186;-60
2022/04/29 06:41:25;;;;;;;1.50;1.00;;;27.20;71.60;;;;;;5120394;22;20024;-60
2022/04/29 06:43:30;;;;;;;1.23;0.90;;;27.20;71.70;;;;;;5110351;23;20027;-62
2022/04/29 06:45:33;;;;;;;1.83;0.95;;;27.20;71.60;;;;;;5112229;22;20032;-61
2022/04/29 06:47:38;;;;;;;2.65;1.33;;;27.20;71.50;;;;;;5114353;22;20044;-63
2022/04/29 06:49:40;;;;;;;2.13;1.30;;;27.20;71.30;;;;;;5119139;22;20036;-62
2022/04/29 06:51:42;;;;;;;5.95;1.55;;;27.10;71.60;;;;;;5113442;22;20024;-60
2022/04/29 06:53:45;;;;;;;2.22;1.02;;;27.10;71.80;;;;;;5113578;22;20379;-62
2022/04/29 06:55:47;;;;;;;5.30;1.40;;;27.10;72.00;;;;;;5118608;22;20047;-61
2022/04/29 06:57:49;;;;;;;2.63;1.17;;;27.10;72.00;;;;;;5116081;22;20032;-61
2022/04/29 06:59:51;;;;;;;1.35;1.00;;;27.10;72.10;;;;;;5110020;22;20281;-63
2022/04/29 07:01:54;;;;;;;1.73;1.20;;;27.10;72.20;;;;;;5111624;22;20070;-62
2022/04/29 07:03:56;;;;;;;2.35;1.00;;;27.10;72.20;;;;;;5117025;22;20020;-63
2022/04/29 07:06:01;;;;;;;1.63;1.27;;;27.20;72.30;;;;;;5108083;23;20036;-63
2022/04/29 07:08:03;;;;;;;3.10;1.27;;;27.10;72.80;;;;;;5111362;22;20031;-61
2022/04/29 07:10:09;;;;;;;1.98;1.25;;;27.10;72.00;;;;;;5116702;23;20032;-64
2022/04/29 07:12:12;;;;;;;2.20;1.23;;;27.10;72.20;;;;;;5122774;22;20086;-65
2022/04/29 07:14:14;;;;;;;1.55;0.65;;;27.10;72.30;;;;;;5112064;23;20114;-64
2022/04/29 07:16:16;;;;;;;3.40;1.38;;;27.10;72.40;;;;;;5112118;22;20525;-63
2022/04/29 07:18:18;;;;;;;1.65;1.35;;;27.10;72.50;;;;;;5117210;22;20039;-63
2022/04/29 07:20:20;;;;;;;5.13;1.50;;;27.10;72.30;;;;;;5114401;22;20024;-62
2022/04/29 07:22:23;;;;;;;6.90;1.88;;;27.10;72.40;;;;;;5114121;22;20058;-63
2022/04/29 07:24:26;;;;;;;2.88;1.67;;;27.10;72.60;;;;;;5115787;22;20550;-66
2022/04/29 07:26:31;;;;;;;4.35;1.70;;;27.10;72.70;;;;;;5123205;23;20024;-63
2022/04/29 07:28:33;;;;;;;2.93;1.30;;;27.10;72.70;;;;;;5117951;22;20032;-63
2022/04/29 07:30:35;;;;;;;4.15;1.40;;;27.10;72.70;;;;;;5115976;22;20269;-64
2022/04/29 07:32:38;;;;;;;2.50;1.50;;;27.10;72.50;;;;;;5122653;22;20630;-64
2022/04/29 07:41:47;;;;;;;3.42;1.75;;;26.90;71.70;;;;;;5112510;23;20034;-63
2022/04/29 07:43:49;;;;;;;2.75;1.83;;;26.90;71.90;;;;;;5113517;22;20024;-64
2022/04/29 07:45:51;;;;;;;2.97;1.80;;;26.90;71.80;;;;;;5119857;22;20068;-64
2022/04/29 07:47:56;;;;;;;3.67;1.65;;;26.80;71.80;;;;;;5115930;22;20016;-63
2022/04/29 07:49:58;;;;;;;3.20;1.85;;;26.80;72.00;;;;;;5111531;22;20443;-62
2022/04/29 07:52:00;;;;;;;2.23;1.77;;;26.70;72.00;;;;;;5113145;22;20032;-63
2022/04/29 07:54:03;;;;;;;2.33;1.70;;;26.70;72.10;;;;;;5117620;22;20324;-63
2022/04/29 07:56:05;;;;;;;1.83;1.55;;;26.70;72.20;;;;;;5109448;23;20020;-63
2022/04/29 07:58:09;;;;;;;2.92;1.92;;;26.70;72.30;;;;;;5113184;22;20087;-64
2022/04/29 08:00:13;;;;;;;4.40;1.70;;;26.70;72.40;;;;;;5116227;22;20030;-63
2022/04/29 08:02:15;;;;;;;3.20;2.00;;;26.60;72.40;;;;;;5118051;22;20028;-64
2022/04/29 08:04:17;;;;;;;3.00;2.00;;;26.60;72.50;;;;;;5112867;22;20031;-63
2022/04/29 08:06:20;;;;;;;3.47;2.05;;;26.60;72.50;;;;;;5114044;22;20158;-65
2022/04/29 08:08:22;;;;;;;3.42;1.75;;;26.50;72.60;;;;;;5120225;22;20040;-63
2022/04/29 08:10:24;;;;;;;2.73;1.70;;;26.50;72.70;;;;;;5112021;22;20792;-63
2022/04/29 08:12:27;;;;;;;2.42;1.77;;;26.50;72.80;;;;;;5115156;22;20437;-64
2022/04/29 08:14:29;;;;;;;2.75;1.75;;;26.50;72.90;;;;;;5120338;23;20087;-64
2022/04/29 08:16:32;;;;;;;3.17;1.63;;;26.40;72.80;;;;;;5115496;22;20770;-65
2022/04/29 08:18:34;;;;;;;2.83;1.70;;;26.40;72.80;;;;;;5109525;22;20032;-64
2022/04/29 08:20:36;;;;;;;2.38;1.60;;;26.40;72.90;;;;;;5112946;23;20111;-63
2022/04/29 08:22:40;;;;;;;3.38;1.80;;;26.40;73.00;;;;;;5114284;22;20184;-64
2022/04/29 08:24:42;;;;;;;3.28;2.00;;;26.30;73.00;;;;;;5110078;22;20024;-63
2022/04/29 08:26:45;;;;;;;4.05;2.00;;;26.30;73.10;;;;;;5106540;22;20078;-64
2022/04/29 08:28:47;;;;;;;3.65;2.13;;;26.30;73.20;;;;;;5116749;22;20098;-64
2022/04/29 08:30:49;;;;;;;2.45;1.80;;;26.30;73.20;;;;;;5106386;22;21154;-62
2022/04/29 08:32:51;;;;;;;3.28;2.10;;;26.30;73.30;;;;;;5081019;23;20083;-64
2022/04/29 08:34:54;;;;;;;3.15;2.00;;;26.30;73.40;;;;;;5116087;22;20062;-64
2022/04/29 08:36:56;;;;;;;3.30;1.50;;;26.20;73.30;;;;;;5116246;22;20316;-64
2022/04/29 08:38:59;;;;;;;2.67;1.90;;;26.20;73.40;;;;;;5110035;22;20032;-65
2022/04/29 08:41:03;;;;;;;2.00;1.50;;;26.20;73.50;;;;;;5112694;22;20028;-65
2022/04/29 08:43:05;;;;;;;1.92;1.35;;;26.20;73.50;;;;;;5116860;22;20032;-63
2022/04/29 08:45:13;;;;;;;2.95;1.67;;;26.20;73.60;;;;;;5112160;22;20552;-62
2022/04/29 08:47:16;;;;;;;2.60;1.50;;;26.20;73.60;;;;;;5113776;22;20460;-64
2022/04/29 08:49:19;;;;;;;2.47;1.52;;;26.20;73.70;;;;;;5115233;22;20039;-63
2022/04/29 08:51:21;;;;;;;2.75;1.38;;;26.20;73.70;;;;;;5116303;22;20063;-64
2022/04/29 08:53:24;;;;;;;1.83;1.52;;;26.20;73.80;;;;;;5111504;22;20523;-63
2022/04/29 09:00:07;;;;;;;2.47;1.73;;;26.10;73.80;;;;;;5116139;23;20336;-63
2022/04/29 09:02:10;;;;;;;2.40;1.77;;;26.10;73.90;;;;;;5108604;22;20070;-63
2022/04/29 09:04:13;;;;;;;3.47;1.70;;;26.10;73.90;;;;;;5112125;22;20072;-64
2022/04/29 09:06:19;;;;;;;3.72;1.50;;;26.10;74.00;;;;;;5117966;22;20053;-63
2022/04/29 09:08:23;;;;;;;3.08;1.50;;;26.10;74.00;;;;;;5118517;22;20059;-62
2022/04/29 09:10:37;;;;;;;3.00;1.52;;;26.10;74.10;;;;;;5114338;22;20020;-63
2022/04/29 09:12:39;;;;;;;1.85;1.40;;;26.10;74.20;;;;;;5113255;22;20028;-64
2022/04/29 09:14:41;;;;;;;2.60;1.52;;;26.10;74.20;;;;;;5112089;23;20143;-63
2022/04/29 09:16:48;;;;;;;3.83;1.70;;;26.10;74.30;;;;;;5115640;22;20023;-63
2022/04/29 09:18:54;;;;;;;2.65;1.60;;;26.10;74.30;;;;;;5120324;22;20024;-64
2022/04/29 09:20:56;;;;;;;2.08;1.70;;;26.00;74.20;;;;;;5120275;22;20024;-64
2022/04/29 09:22:59;;;;;;;2.40;1.75;;;26.00;74.40;;;;;;5114510;23;20036;-63
2022/04/29 09:25:03;;;;;;;3.38;1.65;;;26.00;74.30;;;;;;5121153;22;20050;-64
2022/04/29 09:27:06;;;;;;;4.15;1.85;;;26.00;74.40;;;;;;5125178;22;20030;-64
2022/04/29 09:29:21;;;;;;;2.00;1.70;;;26.00;74.40;;;;;;5121557;23;20046;-63
2022/04/29 09:31:23;;;;;;;2.30;1.80;;;26.00;74.50;;;;;;5124315;22;20029;-63
2022/04/29 09:33:27;;;;;;;2.78;1.88;;;26.00;74.50;;;;;;5116043;22;20043;-64
2022/04/29 09:35:39;;;;;;;2.22;1.52;;;25.90;74.50;;;;;;5122135;23;20469;-64
2022/04/29 09:39:26;;;;;;;3.00;2.00;;;26.00;74.50;;;;;;5129015;23;20023;-63
2022/04/29 09:40:05;;;;;;;2.63;1.90;;;25.90;74.50;;;;;;5133603;22;20055;-62
2022/04/29 09:42:09;;;;;;;2.50;1.73;;;25.90;74.60;;;;;;5132919;22;20488;-62
2022/04/29 09:44:27;;;;;;;2.38;1.67;;;25.90;74.60;;;;;;5134722;22;20039;-62
2022/04/29 09:46:29;;;;;;;2.15;1.58;;;25.90;74.70;;;;;;5123216;22;20103;-62
2022/04/29 09:48:32;;;;;;;3.23;1.83;;;25.90;74.80;;;;;;5126723;22;20436;-62
2022/04/29 09:50:52;;;;;;;2.75;1.80;;;25.90;74.80;;;;;;5128579;22;20289;-62
2022/04/29 09:52:54;;;;;;;3.17;2.00;;;25.80;74.70;;;;;;5130220;22;20020;-62
2022/04/29 09:55:18;;;;;;;1.88;1.58;;;25.80;74.80;;;;;;5126188;22;20027;-62
2022/04/29 09:57:26;;;;;;;2.50;1.88;;;25.90;74.90;;;;;;5124354;22;20020;-63
2022/04/29 09:59:44;;;;;;;4.25;2.30;;;25.80;75.50;;;;;;5124718;22;20024;-62
2022/04/29 10:01:46;;;;;;;2.28;1.80;;;25.80;74.90;;;;;;5120377;22;20028;-62
2022/04/29 10:03:48;;;;;;;2.80;1.80;;;25.80;75.00;;;;;;5118996;22;20144;-62
2022/04/29 10:05:52;;;;;;;4.18;2.25;;;25.80;74.90;;;;;;5115615;22;20248;-62
2022/04/29 10:07:57;;;;;;;3.40;2.25;;;25.80;75.00;;;;;;5116313;23;20034;-62
2022/04/29 10:09:59;;;;;;;2.67;1.90;;;25.80;75.00;;;;;;5121860;22;20043;-62
2022/04/29 10:12:10;;;;;;;2.90;2.13;;;25.80;75.00;;;;;;5122489;22;20075;-62
2022/04/29 10:14:17;;;;;;;5.30;2.50;;;25.80;75.10;;;;;;5118551;23;20024;-62
2022/04/29 10:16:22;;;;;;;2.78;1.90;;;25.80;75.10;;;;;;5116347;22;20024;-61
2022/04/29 10:23:13;;;;;;;3.88;2.45;;;25.70;75.70;;;;;;5118241;23;20070;-62
2022/04/29 10:25:15;;;;;;;3.25;2.28;;;25.70;75.10;;;;;;5125335;22;20104;-63
2022/04/29 10:27:18;;;;;;;3.75;2.13;;;25.70;75.10;;;;;;5119600;22;20648;-63
2022/04/29 10:29:21;;;;;;;3.25;2.30;;;25.70;75.20;;;;;;5120064;22;20032;-63
2022/04/29 10:31:24;;;;;;;3.95;1.90;;;25.70;75.30;;;;;;5123967;22;20031;-63
2022/04/29 10:33:26;;;;;;;3.45;2.25;;;25.70;75.30;;;;;;5120544;22;20028;-63
2022/04/29 10:35:40;;;;;;;2.97;2.30;;;25.70;75.30;;;;;;5120421;22;20438;-63
2022/04/29 10:37:42;;;;;;;3.97;2.30;;;25.70;75.20;;;;;;5117113;22;20028;-63
2022/04/29 10:40:11;;;;;;;3.00;1.92;;;25.70;75.30;;;;;;5115461;23;20028;-63
2022/04/29 10:42:18;;;;;;;2.80;2.08;;;25.70;75.30;;;;;;5120582;22;20870;-63
2022/04/29 10:44:20;;;;;;;3.60;2.28;;;25.70;75.40;;;;;;5120707;22;20064;-63
2022/04/29 10:46:39;;;;;;;3.58;2.10;;;25.70;75.50;;;;;;5122265;22;20078;-63
2022/04/29 10:48:42;;;;;;;3.40;2.00;;;25.70;75.40;;;;;;5115878;22;20027;-63
2022/04/29 10:50:44;;;;;;;2.33;1.80;;;25.70;75.20;;;;;;5117325;22;21031;-62
2022/04/29 10:53:00;;;;;;;2.70;1.90;;;25.70;75.10;;;;;;5124720;22;20028;-62
2022/04/29 10:55:03;;;;;;;3.08;2.00;;;25.70;75.10;;;;;;5119312;23;20027;-63
2022/04/29 10:57:07;;;;;;;3.33;1.90;;;25.60;75.10;;;;;;5115737;23;20028;-63
2022/04/29 10:59:14;;;;;;;2.35;1.77;;;25.70;75.20;;;;;;5112688;23;20032;-63
2022/04/29 11:01:31;;;;;;;2.63;1.80;;;25.60;75.20;;;;;;5118158;22;20213;-64
2022/04/29 11:03:41;;;;;;;2.42;1.90;;;25.60;75.20;;;;;;5118428;22;20111;-64
2022/04/29 11:05:43;;;;;;;3.25;1.52;;;25.60;75.30;;;;;;5116378;22;20023;-63
2022/04/29 11:07:48;;;;;;;3.22;1.63;;;25.60;75.30;;;;;;5119998;22;20085;-65
2022/04/29 11:09:50;;;;;;;3.47;2.00;;;25.60;75.30;;;;;;5122749;22;20024;-62
2022/04/29 11:11:53;;;;;;;2.78;1.90;;;25.60;75.30;;;;;;5115481;22;20031;-63